createdAt,value
2023-01-19T00:01:26.557Z,77.17
2023-01-19T00:02:48.470Z,77.71
2023-01-19T00:04:10.228Z,77.98
2023-01-19T00:05:33.948Z,77.45
2023-01-19T00:06:56.037Z,78.00
2023-01-19T00:08:18.958Z,77.88
2023-01-19T00:09:40.979Z,78.07
2023-01-19T00:11:04.168Z,77.61
2023-01-19T00:12:26.889Z,77.49
2023-01-19T00:13:51.978Z,77.56
2023-01-19T00:15:16.345Z,77.20
2023-01-19T00:16:39.241Z,77.05
2023-01-19T00:18:01.650Z,77.99
2023-01-19T00:19:26.211Z,77.78
2023-01-19T00:20:51.102Z,78.05
2023-01-19T00:22:14.907Z,77.37
2023-01-19T00:23:37.201Z,77.55
2023-01-19T00:25:03.242Z,77.52
2023-01-19T00:26:25.300Z,76.11
2023-01-19T00:27:50.316Z,76.29
2023-01-19T00:29:13.430Z,77.13
2023-01-19T00:30:39.964Z,76.73
2023-01-19T00:32:09.419Z,76.25
2023-01-19T00:33:33.925Z,76.54
2023-01-19T00:34:58.965Z,76.37
2023-01-19T00:36:21.654Z,76.38
2023-01-19T00:37:49.305Z,76.09
2023-01-19T00:39:15.215Z,76.27
2023-01-19T00:40:37.139Z,76.37
2023-01-19T00:42:17.575Z,77.04
2023-01-19T00:43:47.745Z,77.75
2023-01-19T00:45:12.330Z,77.35
2023-01-19T00:46:34.404Z,76.91
2023-01-19T00:47:59.247Z,76.94
2023-01-19T00:52:16.485Z,75.81
2023-01-19T00:54:12.544Z,75.92
2023-01-19T00:55:37.324Z,75.33
2023-01-19T00:56:59.468Z,75.53
2023-01-19T00:58:23.013Z,75.07
2023-01-19T00:59:47.540Z,75.43
2023-01-19T01:01:12.218Z,75.77
2023-01-19T01:02:34.905Z,76.78
2023-01-19T01:04:01.622Z,76.78
2023-01-19T01:05:24.186Z,76.85
2023-01-19T01:06:51.771Z,76.62
2023-01-19T01:08:18.930Z,76.74
2023-01-19T01:09:43.668Z,77.46
2023-01-19T01:11:08.979Z,76.91
2023-01-19T01:12:39.284Z,77.23
2023-01-19T01:14:01.621Z,77.66
2023-01-19T01:15:24.156Z,77.51
2023-01-19T01:16:46.380Z,77.89
2023-01-19T01:18:08.769Z,78.04
2023-01-19T01:19:35.406Z,77.89
2023-01-19T01:21:10.133Z,78.26
2023-01-19T01:22:35.032Z,78.27
2023-01-19T01:23:57.218Z,78.29
2023-01-19T01:25:22.731Z,78.28
2023-01-19T01:26:45.131Z,78.65
2023-01-19T01:28:11.034Z,78.11
2023-01-19T01:29:35.463Z,77.39
2023-01-19T01:31:00.094Z,77.36
2023-01-19T01:32:25.270Z,78.00
2023-01-19T01:33:49.895Z,77.94
2023-01-19T01:35:12.731Z,78.37
2023-01-19T01:36:35.650Z,77.94
2023-01-19T01:38:01.056Z,78.13
2023-01-19T01:39:22.893Z,78.04
2023-01-19T01:40:48.063Z,78.61
2023-01-19T01:42:17.999Z,78.30
2023-01-19T01:43:53.617Z,78.54
2023-01-19T01:45:55.673Z,78.47
2023-01-19T01:47:45.225Z,78.23
2023-01-19T01:49:15.993Z,78.27
2023-01-19T01:51:19.277Z,75.62
2023-01-19T01:53:14.386Z,75.09
2023-01-19T01:54:37.605Z,74.86
2023-01-19T01:56:09.400Z,74.82
2023-01-19T01:57:31.923Z,75.62
2023-01-19T01:58:59.823Z,76.02
2023-01-19T02:00:21.810Z,75.95
2023-01-19T02:02:08.128Z,76.69
2023-01-19T02:03:33.354Z,76.81
2023-01-19T02:05:06.960Z,76.53
2023-01-19T02:06:32.009Z,77.02
2023-01-19T02:08:36.994Z,76.98
2023-01-19T02:10:17.479Z,76.77
2023-01-19T02:13:51.470Z,77.16
2023-01-19T02:15:19.151Z,77.95
2023-01-19T02:16:53.607Z,78.10
2023-01-19T02:18:17.946Z,78.36
2023-01-19T02:19:45.656Z,77.95
2023-01-19T02:21:18.494Z,78.05
2023-01-19T02:22:49.397Z,77.78
2023-01-19T02:24:12.118Z,78.64
2023-01-19T02:25:37.370Z,78.62
2023-01-19T02:27:09.742Z,79.13
2023-01-19T02:28:32.998Z,79.25
2023-01-19T02:29:58.202Z,79.03
2023-01-19T02:31:29.672Z,79.27
2023-01-19T02:32:52.411Z,79.02
2023-01-19T02:34:19.939Z,76.30
2023-01-19T02:35:42.658Z,74.12
2023-01-19T02:37:12.405Z,76.95
2023-01-19T02:38:38.872Z,77.27
2023-01-19T02:40:05.928Z,76.27
2023-01-19T02:41:41.654Z,76.72
2023-01-19T02:43:25.632Z,77.84
2023-01-19T02:45:15.664Z,77.96
2023-01-19T02:47:17.191Z,77.78
2023-01-19T02:48:45.410Z,77.29
2023-01-19T02:50:50.025Z,77.58
2023-01-19T02:52:19.442Z,78.47
2023-01-19T02:53:47.752Z,78.99
2023-01-19T02:55:25.948Z,78.37
2023-01-19T02:57:05.260Z,78.48
2023-01-19T02:59:10.585Z,78.67
2023-01-19T03:00:52.490Z,79.11
2023-01-19T03:02:44.423Z,78.89
2023-01-19T03:04:32.537Z,79.16
2023-01-19T03:06:07.357Z,79.06
2023-01-19T03:07:35.081Z,79.39
2023-01-19T03:09:07.257Z,79.46
2023-01-19T03:11:00.654Z,79.31
2023-01-19T03:12:22.608Z,79.51
2023-01-19T03:14:09.163Z,79.89
2023-01-19T03:16:01.009Z,79.60
2023-01-19T03:17:24.015Z,79.85
2023-01-19T03:18:55.944Z,79.64
2023-01-19T03:20:24.799Z,79.32
2023-01-19T03:21:51.122Z,79.82
2023-01-19T03:23:17.660Z,79.58
2023-01-19T03:24:43.675Z,79.60
2023-01-19T03:26:09.643Z,79.67
2023-01-19T03:27:40.914Z,79.64
2023-01-19T03:29:05.076Z,80.40
2023-01-19T03:30:32.707Z,79.98
2023-01-19T03:32:01.927Z,79.77
2023-01-19T03:33:29.530Z,80.43
2023-01-19T03:34:53.216Z,80.68
2023-01-19T03:37:03.398Z,80.28
2023-01-19T03:38:32.612Z,80.75
2023-01-19T03:39:55.298Z,80.90
2023-01-19T03:41:20.402Z,80.79
2023-01-19T03:42:44.664Z,81.11
2023-01-19T03:44:07.844Z,80.67
2023-01-19T03:45:32.727Z,80.95
2023-01-19T03:47:34.346Z,80.75
2023-01-19T03:48:58.601Z,80.42
2023-01-19T03:50:29.772Z,80.98
2023-01-19T03:51:55.324Z,80.29
2023-01-19T03:53:18.257Z,80.04
2023-01-19T03:54:44.524Z,79.14
2023-01-19T03:56:10.184Z,79.11
2023-01-19T03:57:35.147Z,78.90
2023-01-19T03:58:57.587Z,78.86
2023-01-19T04:00:20.111Z,78.11
2023-01-19T04:01:42.855Z,78.32
2023-01-19T04:03:13.046Z,79.01
2023-01-19T04:04:36.299Z,78.34
2023-01-19T04:05:58.668Z,78.30
2023-01-19T04:07:20.625Z,78.62
2023-01-19T04:08:43.225Z,78.22
2023-01-19T04:10:05.960Z,78.44
2023-01-19T04:11:28.486Z,78.01
2023-01-19T04:12:56.739Z,77.49
2023-01-19T04:14:19.000Z,77.76
2023-01-19T04:15:43.928Z,78.64
2023-01-19T04:17:06.036Z,78.84
2023-01-19T04:18:29.792Z,78.52
2023-01-19T04:19:51.831Z,78.92
2023-01-19T04:21:14.205Z,78.87
2023-01-19T04:22:36.527Z,78.57
2023-01-19T04:23:59.236Z,79.00
2023-01-19T04:25:21.571Z,79.27
2023-01-19T04:26:45.207Z,79.30
2023-01-19T04:28:07.020Z,79.32
2023-01-19T04:29:29.259Z,79.26
2023-01-19T04:30:54.769Z,80.00
2023-01-19T04:32:19.032Z,79.45
2023-01-19T04:33:42.397Z,79.61
2023-01-19T04:35:05.386Z,80.41
2023-01-19T04:36:28.386Z,80.25
2023-01-19T04:37:53.200Z,80.42
2023-01-19T04:39:17.854Z,79.30
2023-01-19T04:40:40.701Z,80.07
2023-01-19T04:42:06.649Z,80.15
2023-01-19T04:43:28.660Z,80.34
2023-01-19T04:44:50.291Z,80.46
2023-01-19T04:46:13.044Z,80.09
2023-01-19T04:47:35.045Z,78.93
2023-01-19T04:48:57.406Z,78.90
2023-01-19T04:50:21.057Z,78.55
2023-01-19T04:51:43.314Z,79.44
2023-01-19T04:53:05.246Z,79.12
2023-01-19T04:54:28.755Z,79.52
2023-01-19T04:55:55.607Z,80.08
2023-01-19T04:57:17.722Z,80.32
2023-01-19T04:58:39.705Z,80.11
2023-01-19T05:00:04.642Z,80.49
2023-01-19T05:01:29.041Z,80.29
2023-01-19T05:02:55.823Z,80.47
2023-01-19T05:04:22.616Z,80.98
2023-01-19T05:05:47.045Z,81.55
2023-01-19T05:07:11.775Z,81.81
2023-01-19T05:08:39.208Z,81.83
2023-01-19T05:10:07.832Z,81.87
2023-01-19T05:11:30.411Z,81.92
2023-01-19T05:12:52.591Z,81.57
2023-01-19T05:14:17.627Z,81.55
2023-01-19T05:15:43.094Z,82.07
2023-01-19T05:17:05.475Z,81.93
2023-01-19T05:18:36.036Z,82.36
2023-01-19T05:19:58.280Z,81.66
2023-01-19T05:21:21.923Z,82.21
2023-01-19T05:22:51.632Z,82.21
2023-01-19T05:24:13.973Z,81.76
2023-01-19T05:25:39.025Z,82.01
2023-01-19T05:27:01.213Z,81.51
2023-01-19T05:28:23.481Z,81.41
2023-01-19T05:29:48.168Z,81.33
2023-01-19T05:31:10.431Z,80.87
2023-01-19T05:32:32.893Z,81.70
2023-01-19T05:33:55.052Z,81.10
2023-01-19T05:35:20.148Z,81.85
2023-01-19T05:36:44.578Z,81.79
2023-01-19T05:38:06.772Z,82.12
2023-01-19T05:39:29.921Z,81.70
2023-01-19T05:40:58.558Z,82.00
2023-01-19T05:42:21.075Z,81.91
2023-01-19T05:43:44.221Z,81.31
2023-01-19T05:45:07.244Z,80.99
2023-01-19T05:46:29.431Z,80.97
2023-01-19T05:47:52.702Z,80.82
2023-01-19T05:49:14.771Z,81.42
2023-01-19T05:50:38.966Z,81.29
2023-01-19T05:52:01.189Z,81.85
2023-01-19T05:53:23.435Z,82.11
2023-01-19T05:54:45.385Z,82.28
2023-01-19T05:56:11.249Z,81.89
2023-01-19T05:57:33.653Z,81.33
2023-01-19T05:58:55.885Z,81.87
2023-01-19T06:00:18.424Z,81.44
2023-01-19T06:01:40.692Z,81.95
2023-01-19T06:03:03.222Z,79.09
2023-01-19T06:04:28.729Z,74.75
2023-01-19T06:05:50.885Z,77.20
2023-01-19T06:07:13.057Z,78.23
2023-01-19T06:08:35.259Z,78.81
2023-01-19T06:09:58.684Z,80.26
2023-01-19T06:11:23.163Z,80.70
2023-01-19T06:12:46.193Z,80.46
2023-01-19T06:14:09.551Z,80.70
2023-01-19T06:15:31.816Z,80.23
2023-01-19T06:16:56.647Z,80.15
2023-01-19T06:18:19.659Z,80.19
2023-01-19T06:19:42.167Z,79.98
2023-01-19T06:21:09.603Z,79.04
2023-01-19T06:22:31.336Z,78.25
2023-01-19T06:23:59.163Z,78.63
2023-01-19T06:25:28.230Z,78.19
2023-01-19T06:26:50.580Z,78.10
2023-01-19T06:28:15.103Z,78.29
2023-01-19T06:29:37.278Z,77.95
2023-01-19T06:30:59.341Z,78.11
2023-01-19T06:32:28.692Z,78.80
2023-01-19T06:33:55.984Z,78.10
2023-01-19T06:35:34.644Z,78.58
2023-01-19T06:37:13.448Z,78.13
2023-01-19T06:38:40.145Z,77.34
2023-01-19T06:40:03.141Z,77.34
2023-01-19T06:41:25.769Z,77.13
2023-01-19T06:42:50.364Z,77.08
2023-01-19T06:44:13.009Z,76.65
2023-01-19T06:45:35.904Z,77.04
2023-01-19T06:47:15.231Z,75.87
2023-01-19T06:48:38.170Z,75.96
2023-01-19T06:50:00.146Z,75.65
2023-01-19T06:51:22.996Z,75.42
2023-01-19T06:52:45.445Z,75.29
2023-01-19T06:54:07.648Z,74.97
2023-01-19T06:55:32.128Z,74.52
2023-01-19T06:57:01.191Z,72.11
2023-01-19T06:58:24.521Z,68.68
2023-01-19T06:59:47.709Z,66.55
2023-01-19T07:01:11.749Z,64.74
2023-01-19T07:02:47.991Z,62.93
2023-01-19T07:04:14.162Z,59.96
2023-01-19T07:05:39.015Z,59.74
2023-01-19T07:07:03.919Z,58.88
2023-01-19T07:08:32.117Z,58.57
2023-01-19T07:09:54.704Z,59.17
2023-01-19T07:11:26.575Z,56.99
2023-01-19T07:12:56.716Z,56.68
2023-01-19T07:14:23.192Z,57.47
2023-01-19T07:15:49.568Z,55.29
2023-01-19T07:17:14.317Z,54.85
2023-01-19T07:18:37.703Z,54.11
2023-01-19T07:20:02.991Z,53.10
2023-01-19T07:21:25.320Z,53.23
2023-01-19T07:22:47.246Z,52.27
2023-01-19T07:24:09.916Z,51.00
2023-01-19T07:25:32.264Z,51.29
2023-01-19T07:26:54.338Z,51.64
2023-01-19T07:28:16.753Z,51.52
2023-01-19T07:29:39.356Z,50.08
2023-01-19T07:31:01.310Z,49.70
2023-01-19T07:32:25.491Z,48.44
2023-01-19T07:33:47.996Z,50.60
2023-01-19T07:35:12.263Z,51.60
2023-01-19T07:36:37.063Z,49.44
2023-01-19T07:37:59.744Z,48.03
2023-01-19T07:39:21.830Z,50.68
2023-01-19T07:40:44.060Z,48.46
2023-01-19T07:42:06.897Z,47.19
2023-01-19T07:43:29.162Z,48.36
2023-01-19T07:44:51.147Z,47.42
2023-01-19T07:46:13.657Z,44.32
2023-01-19T07:47:35.686Z,45.72
2023-01-19T07:48:58.047Z,44.69
2023-01-19T07:50:23.973Z,47.42
2023-01-19T07:51:46.335Z,47.33
2023-01-19T07:53:12.138Z,42.91
2023-01-19T07:54:39.920Z,42.97
2023-01-19T07:56:01.992Z,42.13
2023-01-19T07:57:24.296Z,44.21
2023-01-19T07:58:46.971Z,41.05
2023-01-19T08:00:11.080Z,40.94
2023-01-19T08:02:02.144Z,42.75
2023-01-19T08:03:24.525Z,38.38
2023-01-19T08:04:51.872Z,41.13
2023-01-19T08:06:29.126Z,43.13
2023-01-19T08:07:54.251Z,39.52
2023-01-19T08:09:16.494Z,42.61
2023-01-19T08:10:41.131Z,39.61
2023-01-19T08:12:04.213Z,39.31
2023-01-19T08:13:26.876Z,38.64
2023-01-19T08:14:51.677Z,39.18
2023-01-19T08:16:16.431Z,43.32
2023-01-19T08:17:39.610Z,43.90
2023-01-19T08:19:02.040Z,40.74
2023-01-19T08:20:24.589Z,41.67
2023-01-19T08:21:46.643Z,42.08
2023-01-19T08:23:08.921Z,42.58
2023-01-19T08:24:31.779Z,44.32
2023-01-19T08:25:56.671Z,43.85
2023-01-19T08:27:23.238Z,45.88
2023-01-19T08:28:49.075Z,45.03
2023-01-19T08:30:19.984Z,44.50
2023-01-19T08:31:42.374Z,47.12
2023-01-19T08:33:04.723Z,47.72
2023-01-19T08:34:27.579Z,46.01
2023-01-19T08:35:51.424Z,47.41
2023-01-19T08:37:42.573Z,48.11
2023-01-19T08:39:10.156Z,47.60
2023-01-19T08:40:35.925Z,47.46
2023-01-19T08:42:02.737Z,49.31
2023-01-19T08:43:26.101Z,46.79
2023-01-19T08:44:57.498Z,50.10
2023-01-19T08:46:46.939Z,48.37
2023-01-19T08:48:10.056Z,47.54
2023-01-19T08:49:41.317Z,47.75
2023-01-19T08:51:03.625Z,47.73
2023-01-19T08:52:38.809Z,46.41
2023-01-19T08:54:08.896Z,46.88
2023-01-19T08:58:32.042Z,45.08
2023-01-19T09:00:44.887Z,46.43
2023-01-19T09:02:45.059Z,45.16
2023-01-19T09:04:41.635Z,44.01
2023-01-19T09:06:20.065Z,43.58
2023-01-19T09:07:59.669Z,41.26
2023-01-19T09:09:52.460Z,43.33
2023-01-19T09:11:45.987Z,42.44
2023-01-19T09:13:22.606Z,42.76
2023-01-19T09:14:48.887Z,42.20
2023-01-19T09:22:57.871Z,42.21
2023-01-19T09:24:30.478Z,40.66
2023-01-19T09:26:02.143Z,39.97
2023-01-19T09:27:27.005Z,43.52
2023-01-19T09:28:51.613Z,42.23
2023-01-19T09:30:14.097Z,40.85
2023-01-19T09:31:41.729Z,40.26
2023-01-19T09:35:09.732Z,41.25
2023-01-19T09:43:53.286Z,41.37
2023-01-19T09:45:59.774Z,41.48
2023-01-19T09:47:42.263Z,40.16
2023-01-19T09:49:34.457Z,40.87
2023-01-19T09:51:05.517Z,41.41
2023-01-19T09:52:30.931Z,39.57
2023-01-19T09:54:04.227Z,41.48
2023-01-19T09:55:27.660Z,40.10
2023-01-19T09:56:52.718Z,40.50
2023-01-19T09:58:18.432Z,40.34
2023-01-19T09:59:41.685Z,39.31
2023-01-19T10:01:35.299Z,41.76
2023-01-19T10:03:16.428Z,40.97
2023-01-19T10:04:51.318Z,40.78
2023-01-19T10:06:14.989Z,41.96
2023-01-19T10:07:54.747Z,41.63
2023-01-19T10:09:29.868Z,42.38
2023-01-19T10:10:56.883Z,42.68
2023-01-19T10:12:51.882Z,44.21
2023-01-19T10:14:29.546Z,43.44
2023-01-19T10:16:19.631Z,43.78
2023-01-19T10:17:50.559Z,43.21
2023-01-19T10:19:23.096Z,43.07
2023-01-19T10:20:52.588Z,42.87
2023-01-19T10:22:22.865Z,41.97
2023-01-19T10:23:49.591Z,42.31
2023-01-19T10:25:20.138Z,42.67
2023-01-19T10:26:47.736Z,42.95
2023-01-19T10:28:11.779Z,44.25
2023-01-19T10:29:38.853Z,43.95
2023-01-19T10:31:01.432Z,43.58
2023-01-19T10:32:26.998Z,43.21
2023-01-19T10:33:50.688Z,42.91
2023-01-19T10:35:23.585Z,43.30
2023-01-19T10:36:49.306Z,45.77
2023-01-19T10:38:15.784Z,44.09
2023-01-19T10:39:38.849Z,46.02
2023-01-19T10:41:44.734Z,45.01
2023-01-19T10:43:34.819Z,45.76
2023-01-19T10:44:57.051Z,46.56
2023-01-19T10:46:27.622Z,47.81
2023-01-19T10:47:51.398Z,49.17
2023-01-19T10:49:42.698Z,48.17
2023-01-19T10:51:06.251Z,47.69
2023-01-19T10:52:39.763Z,48.91
2023-01-19T10:54:03.890Z,49.12
2023-01-19T10:55:33.096Z,48.74
2023-01-19T10:57:07.539Z,49.81
2023-01-19T10:58:31.299Z,49.71
2023-01-19T10:59:52.983Z,51.96
2023-01-19T11:01:37.570Z,52.25
2023-01-19T11:03:00.392Z,52.13
2023-01-19T11:04:29.630Z,52.80
2023-01-19T11:05:51.905Z,52.62
2023-01-19T11:07:14.774Z,54.51
2023-01-19T11:08:36.225Z,54.70
2023-01-19T11:10:25.250Z,56.27
2023-01-19T11:11:52.706Z,57.76
2023-01-19T11:13:15.963Z,57.23
2023-01-19T11:14:38.808Z,55.07
2023-01-19T11:16:27.646Z,56.55
2023-01-19T11:17:50.589Z,57.33
2023-01-19T11:19:31.473Z,59.15
2023-01-19T11:20:56.754Z,59.11
2023-01-19T11:22:24.883Z,60.69
2023-01-19T11:23:53.914Z,60.26
2023-01-19T11:25:31.332Z,59.58
2023-01-19T11:27:06.165Z,58.90
2023-01-19T11:28:37.347Z,59.23
2023-01-19T11:30:10.424Z,60.56
2023-01-19T11:31:36.045Z,59.27
2023-01-19T11:32:58.137Z,59.39
2023-01-19T11:34:25.594Z,58.56
2023-01-19T11:35:47.376Z,60.14
2023-01-19T11:37:20.842Z,60.83
2023-01-19T11:38:45.717Z,59.85
2023-01-19T11:40:14.286Z,59.67
2023-01-19T11:41:38.386Z,58.67
2023-01-19T11:43:00.105Z,60.03
2023-01-19T11:44:32.645Z,60.96
2023-01-19T11:45:57.298Z,61.29
2023-01-19T11:47:44.935Z,61.58
2023-01-19T11:49:44.295Z,60.93
2023-01-19T11:51:16.996Z,60.36
2023-01-19T11:52:50.230Z,60.28
2023-01-19T11:54:31.726Z,59.49
2023-01-19T11:56:18.239Z,60.81
2023-01-19T11:57:54.377Z,61.06
2023-01-19T11:59:19.739Z,61.89
2023-01-19T12:00:59.592Z,62.65
2023-01-19T12:02:49.840Z,63.38
2023-01-19T12:04:17.346Z,62.06
2023-01-19T12:05:43.199Z,64.55
2023-01-19T12:07:10.731Z,64.36
2023-01-19T12:09:02.242Z,61.50
2023-01-19T12:10:32.919Z,62.51
2023-01-19T12:12:08.212Z,62.65
2023-01-19T12:13:32.092Z,63.25
2023-01-19T12:15:11.009Z,62.47
2023-01-19T12:16:38.047Z,62.54
2023-01-19T12:18:02.739Z,63.84
2023-01-19T12:19:40.909Z,61.05
2023-01-19T12:21:04.173Z,61.08
2023-01-19T12:22:30.064Z,60.41
2023-01-19T12:24:16.456Z,59.17
2023-01-19T12:26:54.356Z,61.72
2023-01-19T12:28:19.114Z,63.37
2023-01-19T12:29:41.421Z,59.73
2023-01-19T12:31:04.057Z,57.93
2023-01-19T12:32:36.858Z,57.52
2023-01-19T12:34:48.940Z,59.80
2023-01-19T12:36:38.962Z,58.10
2023-01-19T12:38:00.607Z,58.49
2023-01-19T12:39:24.959Z,57.27
2023-01-19T12:40:46.642Z,59.04
2023-01-19T12:42:20.441Z,59.00
2023-01-19T12:43:43.200Z,57.97
2023-01-19T12:45:26.014Z,59.57
2023-01-19T12:46:54.538Z,58.17
2023-01-19T12:48:27.565Z,56.43
2023-01-19T12:50:02.077Z,58.68
2023-01-19T12:51:27.527Z,56.92
2023-01-19T12:52:58.012Z,57.11
2023-01-19T12:54:34.171Z,56.77
2023-01-19T12:56:06.128Z,56.05
2023-01-19T12:57:33.027Z,56.97
2023-01-19T12:58:54.675Z,57.35
2023-01-19T13:00:25.257Z,57.06
2023-01-19T13:02:25.601Z,54.81
2023-01-19T13:03:58.716Z,54.96
2023-01-19T13:05:55.235Z,55.69
2023-01-19T13:07:18.157Z,54.84
2023-01-19T13:09:01.105Z,55.83
2023-01-19T13:11:01.761Z,57.01
2023-01-19T13:12:27.080Z,57.38
2023-01-19T13:13:51.620Z,58.43
2023-01-19T13:15:48.530Z,59.54
2023-01-19T13:17:52.724Z,60.03
2023-01-19T13:19:22.222Z,60.04
2023-01-19T13:21:06.818Z,60.64
2023-01-19T13:22:49.531Z,61.76
2023-01-19T13:24:24.153Z,60.64
2023-01-19T13:26:07.140Z,62.26
2023-01-19T13:27:28.836Z,62.72
2023-01-19T13:29:15.808Z,63.96
2023-01-19T13:30:58.465Z,64.82
2023-01-19T13:32:24.330Z,65.35
2023-01-19T13:33:54.261Z,64.72
2023-01-19T13:35:19.337Z,65.89
2023-01-19T13:36:52.223Z,66.03
2023-01-19T13:38:15.137Z,66.12
2023-01-19T13:39:44.228Z,65.66
2023-01-19T13:41:06.544Z,66.33
2023-01-19T13:42:37.390Z,66.25
2023-01-19T13:44:08.139Z,65.64
2023-01-19T13:45:38.015Z,66.14
2023-01-19T13:47:00.301Z,66.51
2023-01-19T13:48:24.285Z,65.33
2023-01-19T13:49:48.642Z,65.24
2023-01-19T13:51:18.744Z,64.27
2023-01-19T13:52:44.256Z,64.97
2023-01-19T13:54:06.334Z,66.03
2023-01-19T13:55:31.149Z,66.37
2023-01-19T13:56:55.204Z,66.07
2023-01-19T13:58:24.480Z,66.38
2023-01-19T13:59:45.932Z,65.74
2023-01-19T14:01:22.809Z,66.04
2023-01-19T14:03:21.475Z,67.40
2023-01-19T14:04:43.053Z,67.32
2023-01-19T14:06:05.089Z,67.17
2023-01-19T14:07:26.776Z,68.15
2023-01-19T14:09:07.395Z,68.73
2023-01-19T14:10:31.379Z,67.74
2023-01-19T14:12:14.063Z,67.62
2023-01-19T14:13:43.303Z,68.19
2023-01-19T14:15:11.361Z,67.94
2023-01-19T14:16:33.147Z,66.83
2023-01-19T14:18:17.813Z,67.70
2023-01-19T14:19:53.109Z,68.02
2023-01-19T14:21:18.665Z,68.37
2023-01-19T14:22:46.215Z,69.03
2023-01-19T14:24:19.027Z,68.13
2023-01-19T14:25:44.838Z,69.00
2023-01-19T14:27:24.406Z,69.61
2023-01-19T14:28:46.415Z,68.91
2023-01-19T14:30:22.187Z,67.05
2023-01-19T14:32:07.024Z,68.18
2023-01-19T14:33:46.163Z,65.29
2023-01-19T14:35:10.993Z,66.66
2023-01-19T14:36:42.026Z,69.16
2023-01-19T14:38:04.879Z,68.45
2023-01-19T14:39:34.487Z,68.69
2023-01-19T14:40:56.099Z,68.56
2023-01-19T14:42:32.382Z,67.14
2023-01-19T14:43:58.892Z,67.43
2023-01-19T14:45:32.712Z,68.13
2023-01-19T14:46:55.411Z,68.20
2023-01-19T14:48:21.797Z,66.84
2023-01-19T14:49:47.429Z,67.82
2023-01-19T14:51:17.724Z,68.67
2023-01-19T14:52:42.368Z,69.52
2023-01-19T14:54:04.226Z,67.47
2023-01-19T14:55:45.730Z,69.13
2023-01-19T14:57:13.874Z,69.18
2023-01-19T14:58:36.710Z,68.94
2023-01-19T14:59:58.172Z,67.61
2023-01-19T15:01:19.958Z,67.38
2023-01-19T15:02:42.358Z,68.00
2023-01-19T15:04:03.907Z,68.52
2023-01-19T15:05:25.475Z,68.76
2023-01-19T15:06:48.525Z,68.53
2023-01-19T15:08:21.893Z,69.29
2023-01-19T15:09:43.886Z,69.35
2023-01-19T15:11:22.292Z,69.62
2023-01-19T15:12:44.046Z,70.00
2023-01-19T15:14:06.015Z,70.24
2023-01-19T15:15:32.582Z,70.89
2023-01-19T15:16:54.374Z,70.37
2023-01-19T15:18:27.098Z,71.08
2023-01-19T15:19:48.601Z,71.20
2023-01-19T15:21:17.444Z,71.03
2023-01-19T15:22:38.948Z,72.17
2023-01-19T15:24:01.065Z,71.97
2023-01-19T15:25:27.206Z,71.85
2023-01-19T15:26:49.050Z,72.17
2023-01-19T15:28:20.549Z,72.16
2023-01-19T15:29:42.452Z,72.19
2023-01-19T15:31:04.283Z,72.45
2023-01-19T15:32:26.176Z,72.36
2023-01-19T15:33:47.626Z,72.83
2023-01-19T15:35:19.390Z,73.08
2023-01-19T15:36:42.145Z,72.61
2023-01-19T15:38:03.779Z,72.82
2023-01-19T15:39:26.286Z,73.06
2023-01-19T15:40:57.346Z,73.08
2023-01-19T15:42:18.934Z,73.27
2023-01-19T15:43:41.014Z,73.42
2023-01-19T15:45:02.842Z,73.38
2023-01-19T15:48:10.463Z,73.43
2023-01-19T15:49:33.430Z,74.32
2023-01-19T15:50:55.145Z,74.46
2023-01-19T15:52:17.185Z,73.93
2023-01-19T15:53:39.747Z,74.14
2023-01-19T15:55:01.430Z,74.60
2023-01-19T15:56:25.271Z,74.50
2023-01-19T15:57:48.675Z,74.37
2023-01-19T15:59:10.169Z,74.60
2023-01-19T16:00:36.785Z,74.54
2023-01-19T16:01:58.316Z,74.79
2023-01-19T16:03:19.949Z,74.70
2023-01-19T16:04:41.498Z,74.51
2023-01-19T16:06:03.296Z,75.10
2023-01-19T16:07:24.790Z,75.07
2023-01-19T16:08:46.335Z,75.02
2023-01-19T16:10:09.747Z,74.63
2023-01-19T16:11:34.939Z,75.08
2023-01-19T16:12:56.499Z,75.46
2023-01-19T16:14:17.954Z,75.20
2023-01-19T16:15:42.516Z,75.36
2023-01-19T16:17:05.261Z,75.43
2023-01-19T16:18:26.721Z,75.62
2023-01-19T16:19:48.490Z,75.16
2023-01-19T16:21:10.522Z,75.74
2023-01-19T16:22:32.036Z,76.24
2023-01-19T16:23:54.381Z,75.88
2023-01-19T16:25:16.319Z,76.36
2023-01-19T16:26:37.653Z,76.93
2023-01-19T16:27:59.422Z,76.13
2023-01-19T16:29:21.585Z,76.28
2023-01-19T16:30:43.024Z,75.92
2023-01-19T16:32:05.280Z,76.42
2023-01-19T16:33:26.888Z,76.32
2023-01-19T16:34:48.557Z,76.10
2023-01-19T16:36:27.539Z,76.35
2023-01-19T16:37:52.091Z,76.17
2023-01-19T16:39:15.959Z,76.33
2023-01-19T16:40:38.073Z,76.81
2023-01-19T16:41:59.520Z,76.66
2023-01-19T16:43:20.935Z,76.68
2023-01-19T16:44:45.237Z,76.83
2023-01-19T16:46:06.796Z,76.67
2023-01-19T16:47:28.495Z,76.74
2023-01-19T16:48:51.006Z,76.69
2023-01-19T16:50:13.289Z,77.29
2023-01-19T16:51:35.331Z,77.08
2023-01-19T16:52:57.794Z,76.55
2023-01-19T16:54:23.592Z,76.89
2023-01-19T16:55:46.903Z,76.94
2023-01-19T16:57:08.660Z,76.59
2023-01-19T16:58:30.579Z,76.61
2023-01-19T16:59:52.204Z,76.34
2023-01-19T17:01:19.787Z,77.23
2023-01-19T17:02:43.212Z,76.62
2023-01-19T17:04:05.598Z,76.23
2023-01-19T17:05:27.063Z,76.94
2023-01-19T17:06:50.080Z,76.93
2023-01-19T17:08:12.058Z,77.56
2023-01-19T17:09:34.340Z,77.58
2023-01-19T17:10:56.152Z,78.41
2023-01-19T17:12:18.196Z,77.59
2023-01-19T17:13:41.486Z,77.71
2023-01-19T17:15:02.915Z,78.30
2023-01-19T17:16:26.287Z,78.71
2023-01-19T17:17:48.130Z,77.84
2023-01-19T17:19:14.893Z,77.84
2023-01-19T17:20:36.967Z,79.54
2023-01-19T17:21:58.468Z,79.62
2023-01-19T17:23:20.058Z,78.71
2023-01-19T17:24:45.178Z,79.05
2023-01-19T17:26:07.087Z,79.23
2023-01-19T17:27:28.497Z,78.92
2023-01-19T17:28:50.909Z,78.87
2023-01-19T17:30:14.377Z,78.95
2023-01-19T17:31:37.440Z,80.13
2023-01-19T17:33:01.630Z,79.08
2023-01-19T17:34:26.395Z,79.47
2023-01-19T17:35:48.613Z,80.41
2023-01-19T17:37:14.437Z,79.63
2023-01-19T17:38:41.311Z,80.08
2023-01-19T17:40:09.763Z,79.53
2023-01-19T17:41:42.155Z,80.66
2023-01-19T17:44:06.457Z,80.09
2023-01-19T17:50:15.944Z,79.10
2023-01-19T17:51:40.737Z,79.19
2023-01-19T17:53:58.894Z,79.32
2023-01-19T17:56:25.197Z,78.47
2023-01-19T17:57:54.301Z,79.48
2023-01-19T17:59:21.767Z,80.57
2023-01-19T18:00:43.470Z,80.61
2023-01-19T18:02:05.799Z,81.24
2023-01-19T18:03:34.751Z,80.01
2023-01-19T18:05:18.334Z,80.18
2023-01-19T18:06:40.545Z,79.96
2023-01-19T18:08:02.983Z,81.05
2023-01-19T18:19:12.310Z,84.13
2023-01-19T18:21:17.094Z,85.22
2023-01-19T18:22:39.079Z,85.52
2023-01-19T18:24:05.597Z,85.21
2023-01-19T18:25:27.601Z,85.20
2023-01-19T18:26:54.253Z,85.77
2023-01-19T18:28:25.562Z,85.24
2023-01-19T18:32:53.971Z,82.83
2023-01-19T18:34:21.765Z,84.96
2023-01-19T18:35:55.095Z,84.57
2023-01-19T18:37:24.842Z,84.89
2023-01-19T18:41:00.675Z,84.85
2023-01-19T18:41:19.277Z,86.02
2023-01-19T18:42:41.503Z,86.02
2023-01-19T18:44:48.081Z,87.39
2023-01-19T18:47:15.302Z,87.28
2023-01-19T18:48:52.233Z,86.31
2023-01-19T18:53:23.683Z,87.28
2023-01-19T18:55:31.547Z,87.35
2023-01-19T19:00:15.211Z,87.42
2023-01-19T19:01:40.137Z,88.45
2023-01-19T19:07:35.536Z,86.71
2023-01-19T19:11:09.658Z,86.55
2023-01-19T19:16:02.272Z,86.82
2023-01-19T19:17:53.763Z,85.88
2023-01-19T19:21:03.613Z,86.76
2023-01-19T19:22:31.824Z,86.94
2023-01-19T19:24:28.029Z,87.68
2023-01-19T19:26:07.027Z,87.06
2023-01-19T19:38:00.437Z,89.17
2023-01-19T19:39:41.548Z,89.71
2023-01-19T19:41:31.374Z,86.81
2023-01-19T19:43:24.359Z,87.34
2023-01-19T19:44:54.505Z,87.10
2023-01-19T19:46:28.051Z,87.01
2023-01-19T19:47:53.853Z,85.23
2023-01-19T19:49:21.565Z,85.66
2023-01-19T19:51:18.069Z,85.08
2023-01-19T19:52:42.262Z,85.70
2023-01-19T19:54:11.173Z,86.31
2023-01-19T19:55:32.991Z,86.85
2023-01-19T19:56:54.783Z,87.07
2023-01-19T19:58:16.607Z,86.43
2023-01-19T19:59:38.488Z,86.96
2023-01-19T20:01:03.982Z,86.92
2023-01-19T20:02:48.477Z,86.07
2023-01-19T20:04:13.450Z,85.69
2023-01-19T20:05:36.576Z,86.42
2023-01-19T20:07:03.755Z,85.61
2023-01-19T20:08:25.623Z,85.52
2023-01-19T20:09:47.629Z,86.08
2023-01-19T20:14:40.567Z,87.51
2023-01-19T20:16:14.599Z,87.92
2023-01-19T20:17:49.328Z,88.90
2023-01-19T20:19:16.403Z,89.55
2023-01-19T20:20:47.350Z,89.70